createdAt,value
2023-01-14T00:01:54.111Z,100333.25
2023-01-14T00:06:55.936Z,100313.16
2023-01-14T00:11:57.723Z,100326.31
2023-01-14T00:17:00.726Z,100343.03
2023-01-14T00:22:02.142Z,100331.72
2023-01-14T00:27:03.633Z,100337.25
2023-01-14T00:32:05.932Z,100346.56
2023-01-14T00:37:08.273Z,100360.38
2023-01-14T00:42:09.738Z,100359.00
2023-01-14T00:47:11.278Z,100346.41
2023-01-14T00:52:12.797Z,100345.72
2023-01-14T00:57:17.101Z,100349.97
2023-01-14T01:02:18.558Z,100341.06
2023-01-14T01:07:20.009Z,100340.41
2023-01-14T01:12:21.986Z,100352.34
2023-01-14T01:17:23.936Z,100343.78
2023-01-14T01:22:25.464Z,100359.47
2023-01-14T01:27:26.844Z,100369.84
2023-01-14T01:32:28.227Z,100363.91
2023-01-14T01:37:30.096Z,100373.84
2023-01-14T01:42:34.993Z,100374.94
2023-01-14T01:47:36.373Z,100375.03
2023-01-14T01:52:37.847Z,100380.13
2023-01-14T01:57:39.608Z,100387.41
2023-01-14T02:02:41.115Z,100393.66
2023-01-14T02:07:44.663Z,100412.41
2023-01-14T02:13:15.917Z,100404.63
2023-01-14T02:18:31.257Z,100399.34
2023-01-14T02:24:06.013Z,100407.47
2023-01-14T02:29:27.390Z,100407.25
2023-01-14T02:34:37.720Z,100419.25
2023-01-14T02:39:46.082Z,100408.66
2023-01-14T02:44:55.383Z,100403.34
2023-01-14T02:50:00.040Z,100388.69
2023-01-14T02:55:03.868Z,100401.25
2023-01-14T03:00:30.170Z,100396.34
2023-01-14T03:05:49.579Z,100387.31
2023-01-14T03:11:00.549Z,100391.84
2023-01-14T03:16:07.980Z,100379.22
2023-01-14T03:21:19.112Z,100375.59
2023-01-14T03:26:23.483Z,100370.50
2023-01-14T03:31:29.111Z,100370.69
2023-01-14T03:36:34.828Z,100359.66
2023-01-14T03:41:56.704Z,100344.47
2023-01-14T03:46:58.652Z,100349.19
2023-01-14T03:52:07.835Z,100350.81
2023-01-14T03:57:15.856Z,100361.28
2023-01-14T04:02:19.839Z,100354.09
2023-01-14T04:07:22.723Z,100341.63
2023-01-14T04:12:24.170Z,100330.88
2023-01-14T04:17:25.556Z,100325.69
2023-01-14T04:22:27.021Z,100329.84
2023-01-14T04:27:28.335Z,100325.88
2023-01-14T04:32:32.168Z,100337.50
2023-01-14T04:37:33.565Z,100323.91
2023-01-14T04:42:35.111Z,100309.56
2023-01-14T04:47:36.814Z,100303.88
2023-01-14T04:52:38.399Z,100312.00
2023-01-14T04:57:39.759Z,100317.28
2023-01-14T05:02:41.164Z,100335.44
2023-01-14T05:07:42.621Z,100336.75
2023-01-14T05:12:57.156Z,100328.34
2023-01-14T05:17:59.038Z,100322.13
2023-01-14T05:23:06.273Z,100301.69
2023-01-14T05:28:11.973Z,100292.75
2023-01-14T05:33:14.365Z,100290.03
2023-01-14T05:38:15.937Z,100284.13
2023-01-14T05:43:36.134Z,100281.50
2023-01-14T05:48:37.525Z,100261.16
2023-01-14T05:53:39.059Z,100264.72
2023-01-14T05:58:40.421Z,100255.38
2023-01-14T06:04:00.400Z,100247.53
2023-01-14T06:09:07.205Z,100252.84
2023-01-14T06:14:08.973Z,100246.81
2023-01-14T06:19:14.406Z,100241.41
2023-01-14T06:24:15.868Z,100244.16
2023-01-14T06:29:17.245Z,100240.19
2023-01-14T06:34:22.311Z,100239.09
2023-01-14T06:39:23.773Z,100235.78
2023-01-14T06:44:25.142Z,100224.94
2023-01-14T06:49:26.599Z,100218.81
2023-01-14T06:54:27.903Z,100216.06
2023-01-14T06:59:29.408Z,100199.78
2023-01-14T07:04:30.869Z,100197.03
2023-01-14T07:09:32.722Z,100195.16
2023-01-14T07:14:34.307Z,100178.97
2023-01-14T07:19:35.801Z,100163.59
2023-01-14T07:24:38.948Z,100169.97
2023-01-14T07:29:40.464Z,100165.63
2023-01-14T07:34:41.892Z,100163.06
2023-01-14T07:39:43.331Z,100150.28
2023-01-14T07:44:45.004Z,100136.09
2023-01-14T07:49:46.629Z,100126.78
2023-01-14T07:54:48.030Z,100138.97
2023-01-14T07:59:49.487Z,100133.75
2023-01-14T08:04:50.893Z,100110.47
2023-01-14T08:09:52.367Z,100133.13
2023-01-14T08:14:53.779Z,100124.63
2023-01-14T08:19:55.333Z,100120.41
2023-01-14T08:24:57.814Z,100119.53
2023-01-14T08:29:59.239Z,100111.28
2023-01-14T08:35:00.793Z,100099.50
2023-01-14T08:40:02.334Z,100095.81
2023-01-14T08:45:03.962Z,100085.81
2023-01-14T08:50:05.750Z,100067.81
2023-01-14T08:55:07.566Z,100046.38
2023-01-14T09:00:10.479Z,100041.44
2023-01-14T09:05:12.067Z,100030.81
2023-01-14T09:10:32.000Z,100046.84
2023-01-14T09:15:52.160Z,100031.16
2023-01-14T09:20:53.563Z,100021.72
2023-01-14T09:25:54.900Z,100009.22
2023-01-14T09:30:56.315Z,100004.44
2023-01-14T09:36:01.281Z,99995.50
2023-01-14T09:41:10.678Z,99981.16
2023-01-14T09:46:12.886Z,99966.94
2023-01-14T09:51:33.191Z,99957.97
2023-01-14T09:56:44.023Z,99944.56
2023-01-14T10:02:10.246Z,99945.16
2023-01-14T10:07:14.671Z,99939.25
2023-01-14T10:12:39.077Z,99922.63
2023-01-14T10:17:44.461Z,99911.03
2023-01-14T10:23:06.286Z,99899.84
2023-01-14T10:28:13.052Z,99897.31
2023-01-14T10:33:16.612Z,99892.59
2023-01-14T10:38:22.608Z,99881.09
2023-01-14T10:43:30.968Z,99866.91
2023-01-14T10:48:46.894Z,99842.56
2023-01-14T10:53:48.451Z,99834.50
2023-01-14T10:58:50.575Z,99841.38
2023-01-14T11:03:52.522Z,99807.84
2023-01-14T11:08:54.917Z,99811.09
2023-01-14T11:13:56.730Z,99808.94
2023-01-14T11:19:03.978Z,99809.44
2023-01-14T11:24:19.463Z,99789.44
2023-01-14T11:29:27.068Z,99755.44
2023-01-14T11:34:39.123Z,99735.16
2023-01-14T11:39:46.547Z,99703.09
2023-01-14T11:45:12.818Z,99685.16
2023-01-14T11:50:21.320Z,99653.91
2023-01-14T11:55:23.017Z,99648.97
2023-01-14T12:00:24.602Z,99644.00
2023-01-14T12:05:26.633Z,99617.19
2023-01-14T12:10:39.638Z,99592.63
2023-01-14T12:16:22.066Z,99580.75
2023-01-14T12:21:37.836Z,99554.44
2023-01-14T12:26:44.845Z,99582.66
2023-01-14T12:31:53.514Z,99558.91
2023-01-14T12:37:10.391Z,99539.03
2023-01-14T12:42:53.457Z,99529.59
2023-01-14T12:47:55.640Z,99527.25
2023-01-14T12:52:57.300Z,99512.94
2023-01-14T12:58:00.615Z,99505.31
2023-01-14T13:03:09.083Z,99486.53
2023-01-14T13:08:26.453Z,99471.59
2023-01-14T13:13:28.001Z,99462.94
2023-01-14T13:18:35.643Z,99454.28
2023-01-14T13:23:36.970Z,99456.06
2023-01-14T13:29:06.830Z,99448.44
2023-01-14T13:34:23.599Z,99418.81
2023-01-14T13:39:25.512Z,99412.94
2023-01-14T13:44:33.600Z,99385.81
2023-01-14T13:49:42.237Z,99373.38
2023-01-14T13:54:46.180Z,99361.47
2023-01-14T13:59:54.814Z,99363.50
2023-01-14T14:04:56.343Z,99356.97
2023-01-14T14:10:02.522Z,99342.03
2023-01-14T14:15:13.049Z,99332.13
2023-01-14T14:20:18.981Z,99324.03
2023-01-14T14:25:34.111Z,99314.94
2023-01-14T14:30:49.714Z,99312.44
2023-01-14T14:35:51.388Z,99303.84
2023-01-14T14:40:52.975Z,99275.75
2023-01-14T14:46:06.619Z,99275.09
2023-01-14T14:51:16.030Z,99266.13
2023-01-14T14:56:20.000Z,99267.00
2023-01-14T15:01:23.513Z,99252.50
2023-01-14T15:06:27.321Z,99247.59
2023-01-14T15:11:33.631Z,99238.34
2023-01-14T15:16:35.801Z,99220.22
2023-01-14T15:21:39.127Z,99217.56
2023-01-14T15:26:42.096Z,99214.78
2023-01-14T15:31:43.459Z,99208.34
2023-01-14T15:36:55.558Z,99204.72
2023-01-14T15:42:00.516Z,99190.50
2023-01-14T15:47:02.463Z,99178.47
2023-01-14T15:52:07.093Z,99169.50
2023-01-14T15:57:16.087Z,99176.66
2023-01-14T16:02:25.792Z,99162.28
2023-01-14T16:07:27.436Z,99158.78
2023-01-14T16:12:28.793Z,99136.59
2023-01-14T16:17:30.342Z,99124.28
2023-01-14T16:22:33.618Z,99124.00
2023-01-14T16:27:37.751Z,99116.72
2023-01-14T16:32:39.222Z,99121.50
2023-01-14T16:37:42.305Z,99113.78
2023-01-14T16:42:44.053Z,99115.19
2023-01-14T16:47:45.517Z,99114.91
2023-01-14T16:52:47.523Z,99100.28
2023-01-14T16:57:49.568Z,99085.19
2023-01-14T17:02:51.569Z,99089.38
2023-01-14T17:07:53.843Z,99087.25
2023-01-14T17:12:55.186Z,99078.75
2023-01-14T17:17:58.070Z,99053.88
2023-01-14T17:23:01.817Z,99044.13
2023-01-14T17:28:03.702Z,99045.63
2023-01-14T17:33:05.133Z,99058.59
2023-01-14T17:38:07.108Z,99039.06
2023-01-14T17:43:08.595Z,99028.16
2023-01-14T17:48:10.964Z,99047.41
2023-01-14T17:53:12.610Z,99034.56
2023-01-14T17:58:14.030Z,99036.78
2023-01-14T18:03:16.456Z,99030.94
2023-01-14T18:08:17.901Z,99033.88
2023-01-14T18:13:19.361Z,99013.91
2023-01-14T18:18:21.144Z,99024.22
2023-01-14T18:23:22.687Z,99014.88
2023-01-14T18:28:24.133Z,99007.59
2023-01-14T18:33:25.733Z,99011.34
2023-01-14T18:38:27.177Z,99004.91
2023-01-14T18:43:28.719Z,99004.69
2023-01-14T18:48:30.250Z,99004.25
2023-01-14T18:53:31.732Z,98983.81
2023-01-14T18:58:35.124Z,98957.97
2023-01-14T19:03:36.939Z,98967.47
2023-01-14T19:08:39.078Z,98974.19
2023-01-14T19:13:40.463Z,98973.50
2023-01-14T19:18:42.121Z,98961.63
2023-01-14T19:23:43.598Z,98936.19
2023-01-14T19:28:47.376Z,98922.91
2023-01-14T19:33:49.074Z,98928.75
2023-01-14T19:38:50.649Z,98921.06
2023-01-14T19:43:52.333Z,98911.25
2023-01-14T19:48:54.178Z,98895.63
2023-01-14T19:53:56.895Z,98904.72
2023-01-14T19:58:58.744Z,98914.47
2023-01-14T20:04:07.136Z,98900.19
2023-01-14T20:09:12.845Z,98902.69
2023-01-14T20:14:14.446Z,98889.56
2023-01-14T20:19:15.831Z,98893.78
2023-01-14T20:24:17.269Z,98889.09
2023-01-14T20:29:18.781Z,98880.34
2023-01-14T20:34:20.147Z,98871.41
2023-01-14T20:39:23.273Z,98869.06
2023-01-14T20:44:43.547Z,98857.72
2023-01-14T20:49:45.115Z,98863.63
2023-01-14T20:54:47.379Z,98859.69
2023-01-14T20:59:48.930Z,98848.94
2023-01-14T21:04:50.535Z,98834.50
2023-01-14T21:09:54.250Z,98830.03
2023-01-14T21:15:14.335Z,98821.53
2023-01-14T21:20:37.342Z,98836.09
2023-01-14T21:25:42.227Z,98838.06
2023-01-14T21:30:46.473Z,98826.75
2023-01-14T21:35:48.080Z,98813.94
2023-01-14T21:41:09.572Z,98805.81
2023-01-14T21:46:11.086Z,98804.84
2023-01-14T21:51:13.643Z,98808.53
2023-01-14T21:56:18.329Z,98805.75
2023-01-14T22:01:20.307Z,98787.84
2023-01-14T22:06:22.736Z,98776.06
2023-01-14T22:11:24.468Z,98760.13
2023-01-14T22:16:27.394Z,98774.16
2023-01-14T22:21:29.041Z,98773.72
2023-01-14T22:26:30.399Z,98751.13
2023-01-14T22:31:31.915Z,98741.22
2023-01-14T22:36:33.310Z,98742.84
2023-01-14T22:41:34.692Z,98739.69
2023-01-14T22:46:36.146Z,98732.53
2023-01-14T22:51:37.675Z,98727.22
2023-01-14T22:56:39.483Z,98717.44
2023-01-14T23:01:40.911Z,98705.66
2023-01-14T23:06:42.559Z,98691.38
2023-01-14T23:11:43.887Z,98680.91
2023-01-14T23:17:03.725Z,98668.47
2023-01-14T23:22:23.953Z,98670.44
2023-01-14T23:27:25.635Z,98653.38
2023-01-14T23:32:27.219Z,98637.75
2023-01-14T23:37:29.763Z,98618.28
2023-01-14T23:42:42.150Z,98619.47
2023-01-14T23:47:44.663Z,98616.44
2023-01-14T23:52:46.333Z,98594.50
2023-01-14T23:57:48.165Z,98587.19
